Time,TemperatureF,DewpointF,PressureIn,WindDirection,WindDirectionDegrees,WindSpeedMPH,WindSpeedGustMPH,Humidity,HourlyPrecipIn,Conditions,Clouds,dailyrainin,SoftwareType,DateUTC
2013-07-15 00:17:00,73.2,58.0,30.13,ESE,112,0.0,0.0,59,0.00,,,0.00,open2300-1.11,2013-07-15 05:17:00,
2013-07-15 01:17:00,72.0,58.2,30.13,NE,45,0.0,2.0,62,0.00,,,0.00,open2300-1.11,2013-07-15 06:17:00,
2013-07-15 02:17:00,70.9,57.6,30.13,ENE,67,0.0,2.2,63,0.00,,,0.00,open2300-1.11,2013-07-15 07:17:00,
2013-07-15 03:17:00,70.9,57.2,30.13,ESE,112,1.8,3.4,62,0.00,,,0.00,open2300-1.11,2013-07-15 08:17:00,
2013-07-15 04:17:00,69.6,56.5,30.13,SE,135,0.0,1.8,63,0.00,,,0.00,open2300-1.11,2013-07-15 09:17:00,
2013-07-15 05:17:00,67.8,56.0,30.14,SE,135,0.0,0.0,66,0.00,,,0.00,open2300-1.11,2013-07-15 10:17:00,
2013-07-15 06:17:00,66.4,55.5,30.15,SE,135,0.0,0.0,68,0.00,,,0.00,open2300-1.11,2013-07-15 11:17:00,
2013-07-15 07:17:00,66.7,57.0,30.16,SE,135,0.0,0.0,71,0.00,,,0.00,open2300-1.11,2013-07-15 12:17:00,
2013-07-15 08:17:00,72.5,61.4,30.17,NE,45,0.0,0.0,68,0.00,,,0.00,open2300-1.11,2013-07-15 13:17:00,
2013-07-15 09:17:00,78.1,64.0,30.17,ENE,67,0.0,5.8,62,0.00,,,0.00,open2300-1.11,2013-07-15 14:17:00,
2013-07-15 10:17:00,83.3,67.0,30.17,SE,135,0.0,2.7,58,0.00,,,0.00,open2300-1.11,2013-07-15 15:17:00,
2013-07-15 12:17:00,91.2,65.5,30.16,South,180,5.6,6.5,43,0.00,,,0.00,open2300-1.11,2013-07-15 17:17:00,
2013-07-15 13:17:00,93.0,66.4,30.15,ESE,112,0.0,7.8,42,0.00,,,0.00,open2300-1.11,2013-07-15 18:17:00,
2013-07-15 14:17:00,94.8,67.4,30.13,NE,45,0.0,6.5,41,0.00,,,0.00,open2300-1.11,2013-07-15 19:17:00,
2013-07-15 15:17:00,92.8,66.9,30.12,ESE,112,1.1,6.0,43,0.00,,,0.00,open2300-1.11,2013-07-15 20:17:00,
2013-07-15 16:17:00,91.8,66.1,30.11,ENE,67,1.3,6.7,43,0.00,,,0.00,open2300-1.11,2013-07-15 21:17:00,
2013-07-15 17:17:00,89.2,65.0,30.10,SSE,157,0.7,8.7,45,0.00,,,0.00,open2300-1.11,2013-07-15 22:17:00,
2013-07-15 18:17:00,88.0,64.5,30.09,SSE,157,6.0,6.3,46,0.00,,,0.00,open2300-1.11,2013-07-15 23:17:00,
2013-07-15 19:17:00,86.7,64.1,30.09,SE,135,4.7,6.0,47,0.00,,,0.00,open2300-1.11,2013-07-16 00:17:00,
2013-07-15 20:17:00,84.7,64.2,30.11,ESE,112,0.0,7.2,50,0.00,,,0.00,open2300-1.11,2013-07-16 01:17:00,
2013-07-15 21:17:00,82.0,63.6,30.11,SE,135,0.0,2.5,54,0.00,,,0.00,open2300-1.11,2013-07-16 02:17:00,
2013-07-15 22:17:00,79.5,63.5,30.13,ENE,67,0.0,2.5,58,0.00,,,0.00,open2300-1.11,2013-07-16 03:17:00,
2013-07-15 23:17:00,78.1,63.6,30.15,ENE,67,0.0,1.3,61,0.00,,,0.00,open2300-1.11,2013-07-16 04:17:00,